Aérodrome :
LOGIN :

S'inscrire | Disclaimer

   EN    FR    IT 

 










Légende :    VFR   VFR Marginal   IFR   IFR Intensif   IFR Très Intensif
Visi : 
Plafond : 
>= 8 km
>= 3000ft
5 à 8 km
1000 à 3000 ft
1500m à 5 km
500 à 1000 ft
800 à 1500m
200 à 500 ft
< 800m
< 200 ft
Symboles :   Orages  Brouillard  Fortes neiges  Fortes précipitations  Vent > 20 kt
SIGMETs :   Divers  Orages  Givrage  Turbulence  Onde Orograph.  Cendres Volcan.







- Altitude de l'aérodrome : 1247 ft
- Code IATA : PRG


LKPR - Praha Ruzyne

DERNIER METAR :
  • 201600Z 09014KT 5000 BR BKN004 OVC006 00/M00 Q1011 NOSIG

METARs EXPIRÉS :
  • 201551Z 09013KT 5000 BR BKN004 OVC006 00/M00 Q1011 RMK REG QNH 1006
  • 201530Z 09013KT 070V150 4000 BR BKN004 OVC006 00/M00 Q1011 NOSIG
  • 201500Z 09013KT 3400 BR FEW004 OVC005 00/M00 Q1011 NOSIG
  • 201430Z 09013KT 3500 BR FEW003 OVC005 00/M00 Q1011 TEMPO 5000 BR BKN007
  • 201400Z 09011KT 3000 -SN BR FEW004 OVC005 00/M00 Q1011 TEMPO 5000 BR BKN007
  • 201353Z 09011KT 3000 -SN BR FEW004 OVC005 00/M01 Q1011 RMK REG QNH 1006
  • 201330Z 09011KT 2600 -SN BR FEW003 OVC004 M00/M01 Q1011 TEMPO 5000 BR SCT004 BKN010

TAF AMD TAF LKPR
Valide du 20 à 13h jusqu'au 21 à 18h UTC


201300Z 2013/2118 09014KT 7000 -SN BKN015
TEMPO 2013/2019 3000 SN BR BKN009
PROB30
TEMPO 2013/2019 09012G24KT 1200 SN BR BKN004
BECMG 2019/2021 07006KT 3000 SN BR BKN006
PROB30
TEMPO 2022/2111 1400 SN BR BKN002
Pas de NOTAMs connus pour ce terrain.



MET'MAP, la Météo Aéronautique d'un coup d'oeil ! - Copyright ORBIFLY Décembre 2007 - Disclaimer

ORBIFLY MET'MAP TEAM :

Programmation & Développement : Alexandra Zaïnal
Conception & Développement : Baudouin d'Aumeries
Co-Programmation & Développement : Marc-Olivier Méhu
Soutien technique & logistique : Manuel Goepfert

Contact : metmap@orbifly.com




SOURCES & CREDITS :

   NOAA